sensor_id;sensor_type;location;lat;lon;timestamp;temperature;humidity
25092;DHT22;13082;52.374;4.946;2024-03-02T00:01:58;9.60;99.90
25092;DHT22;13082;52.374;4.946;2024-03-02T00:04:24;9.60;99.90
25092;DHT22;13082;52.374;4.946;2024-03-02T00:06:52;9.60;99.90
25092;DHT22;13082;52.374;4.946;2024-03-02T00:09:20;9.60;99.90
25092;DHT22;13082;52.374;4.946;2024-03-02T00:11:45;9.60;99.90
25092;DHT22;13082;52.374;4.946;2024-03-02T00:14:12;9.50;99.90
25092;DHT22;13082;52.374;4.946;2024-03-02T00:16:37;9.40;99.90
25092;DHT22;13082;52.374;4.946;2024-03-02T00:19:05;9.20;99.90
25092;DHT22;13082;52.374;4.946;2024-03-02T00:21:31;9.10;99.90
25092;DHT22;13082;52.374;4.946;2024-03-02T00:23:58;8.90;99.90
25092;DHT22;13082;52.374;4.946;2024-03-02T00:26:23;8.90;99.90
25092;DHT22;13082;52.374;4.946;2024-03-02T00:28:49;8.80;99.90
25092;DHT22;13082;52.374;4.946;2024-03-02T00:31:20;8.80;99.90
25092;DHT22;13082;52.374;4.946;2024-03-02T00:33:47;8.60;99.90
25092;DHT22;13082;52.374;4.946;2024-03-02T00:36:21;8.60;99.90
25092;DHT22;13082;52.374;4.946;2024-03-02T00:38:49;8.50;99.90
25092;DHT22;13082;52.374;4.946;2024-03-02T00:41:27;8.50;99.90
25092;DHT22;13082;52.374;4.946;2024-03-02T00:44:06;8.40;99.90
25092;DHT22;13082;52.374;4.946;2024-03-02T00:46:40;8.40;99.90
25092;DHT22;13082;52.374;4.946;2024-03-02T00:49:20;8.30;99.90
25092;DHT22;13082;52.374;4.946;2024-03-02T00:51:47;8.20;99.90
25092;DHT22;13082;52.374;4.946;2024-03-02T00:54:26;8.10;99.90
25092;DHT22;13082;52.374;4.946;2024-03-02T00:56:52;8.10;99.90
25092;DHT22;13082;52.374;4.946;2024-03-02T00:59:20;8.00;99.90
25092;DHT22;13082;52.374;4.946;2024-03-02T01:01:47;8.00;99.90
25092;DHT22;13082;52.374;4.946;2024-03-02T01:04:13;8.00;99.90
25092;DHT22;13082;52.374;4.946;2024-03-02T01:06:39;7.90;99.90
25092;DHT22;13082;52.374;4.946;2024-03-02T01:09:05;8.00;99.90
25092;DHT22;13082;52.374;4.946;2024-03-02T01:11:31;7.90;99.90
25092;DHT22;13082;52.374;4.946;2024-03-02T01:13:56;7.90;99.90
25092;DHT22;13082;52.374;4.946;2024-03-02T01:16:22;7.80;99.90
25092;DHT22;13082;52.374;4.946;2024-03-02T01:18:48;7.80;99.90
25092;DHT22;13082;52.374;4.946;2024-03-02T01:21:14;7.70;99.90
25092;DHT22;13082;52.374;4.946;2024-03-02T01:23:39;7.70;99.90
25092;DHT22;13082;52.374;4.946;2024-03-02T01:26:05;7.70;99.90
25092;DHT22;13082;52.374;4.946;2024-03-02T01:28:31;7.70;99.90
25092;DHT22;13082;52.374;4.946;2024-03-02T01:30:56;7.70;99.90
25092;DHT22;13082;52.374;4.946;2024-03-02T01:33:22;7.70;99.90
25092;DHT22;13082;52.374;4.946;2024-03-02T01:35:48;7.70;99.90
25092;DHT22;13082;52.374;4.946;2024-03-02T01:38:13;7.70;99.90
25092;DHT22;13082;52.374;4.946;2024-03-02T01:40:39;7.70;99.90
25092;DHT22;13082;52.374;4.946;2024-03-02T01:43:06;7.70;99.90
25092;DHT22;13082;52.374;4.946;2024-03-02T01:45:32;7.70;99.90
25092;DHT22;13082;52.374;4.946;2024-03-02T01:47:57;7.70;99.90
25092;DHT22;13082;52.374;4.946;2024-03-02T01:50:33;7.70;99.90
25092;DHT22;13082;52.374;4.946;2024-03-02T01:53:00;7.60;99.90
25092;DHT22;13082;52.374;4.946;2024-03-02T01:55:26;7.60;99.90
25092;DHT22;13082;52.374;4.946;2024-03-02T01:57:54;7.60;99.90
25092;DHT22;13082;52.374;4.946;2024-03-02T02:00:20;7.70;99.90
25092;DHT22;13082;52.374;4.946;2024-03-02T02:02:49;7.60;99.90
25092;DHT22;13082;52.374;4.946;2024-03-02T02:05:16;7.60;99.90
25092;DHT22;13082;52.374;4.946;2024-03-02T02:07:42;7.70;99.90
25092;DHT22;13082;52.374;4.946;2024-03-02T02:10:09;7.70;99.90
25092;DHT22;13082;52.374;4.946;2024-03-02T02:12:35;7.70;99.90
25092;DHT22;13082;52.374;4.946;2024-03-02T02:15:00;7.70;99.90
25092;DHT22;13082;52.374;4.946;2024-03-02T02:17:26;7.60;99.90
25092;DHT22;13082;52.374;4.946;2024-03-02T02:19:52;7.60;99.90
25092;DHT22;13082;52.374;4.946;2024-03-02T02:22:17;7.50;99.90
25092;DHT22;13082;52.374;4.946;2024-03-02T02:24:43;7.50;99.90
25092;DHT22;13082;52.374;4.946;2024-03-02T02:27:09;7.50;99.90
25092;DHT22;13082;52.374;4.946;2024-03-02T02:29:35;7.50;99.90
25092;DHT22;13082;52.374;4.946;2024-03-02T02:32:01;7.50;99.90
25092;DHT22;13082;52.374;4.946;2024-03-02T02:34:27;7.50;99.90
25092;DHT22;13082;52.374;4.946;2024-03-02T02:36:53;7.50;99.90
25092;DHT22;13082;52.374;4.946;2024-03-02T02:39:21;7.50;99.90
25092;DHT22;13082;52.374;4.946;2024-03-02T02:41:48;7.60;99.90
25092;DHT22;13082;52.374;4.946;2024-03-02T02:44:13;7.60;99.90
25092;DHT22;13082;52.374;4.946;2024-03-02T02:46:39;7.50;99.90
25092;DHT22;13082;52.374;4.946;2024-03-02T02:49:05;7.50;99.90
25092;DHT22;13082;52.374;4.946;2024-03-02T02:51:31;7.50;99.90
25092;DHT22;13082;52.374;4.946;2024-03-02T02:53:57;7.50;99.90
25092;DHT22;13082;52.374;4.946;2024-03-02T02:56:23;7.50;99.90
25092;DHT22;13082;52.374;4.946;2024-03-02T02:58:48;7.50;99.90
25092;DHT22;13082;52.374;4.946;2024-03-02T03:01:15;7.50;99.90
25092;DHT22;13082;52.374;4.946;2024-03-02T03:03:44;7.50;99.90
25092;DHT22;13082;52.374;4.946;2024-03-02T03:06:11;7.50;99.90
25092;DHT22;13082;52.374;4.946;2024-03-02T03:08:37;7.50;99.90
25092;DHT22;13082;52.374;4.946;2024-03-02T03:11:03;7.60;99.90
25092;DHT22;13082;52.374;4.946;2024-03-02T03:13:29;7.50;99.90
25092;DHT22;13082;52.374;4.946;2024-03-02T03:15:54;7.60;99.90
25092;DHT22;13082;52.374;4.946;2024-03-02T03:18:20;7.50;99.90
25092;DHT22;13082;52.374;4.946;2024-03-02T03:20:46;7.60;99.90
25092;DHT22;13082;52.374;4.946;2024-03-02T03:23:11;7.60;99.90
25092;DHT22;13082;52.374;4.946;2024-03-02T03:25:41;7.50;99.90
25092;DHT22;13082;52.374;4.946;2024-03-02T03:28:07;7.60;99.90
25092;DHT22;13082;52.374;4.946;2024-03-02T03:30:38;7.60;99.90
25092;DHT22;13082;52.374;4.946;2024-03-02T03:33:04;7.60;99.90
25092;DHT22;13082;52.374;4.946;2024-03-02T03:35:33;7.60;99.90
25092;DHT22;13082;52.374;4.946;2024-03-02T03:37:58;7.60;99.90
25092;DHT22;13082;52.374;4.946;2024-03-02T03:40:24;7.50;99.90
25092;DHT22;13082;52.374;4.946;2024-03-02T03:42:49;7.60;99.90
25092;DHT22;13082;52.374;4.946;2024-03-02T03:45:16;7.50;99.90
25092;DHT22;13082;52.374;4.946;2024-03-02T03:47:41;7.50;99.90
25092;DHT22;13082;52.374;4.946;2024-03-02T03:50:07;7.50;99.90
25092;DHT22;13082;52.374;4.946;2024-03-02T03:52:33;7.50;99.90
25092;DHT22;13082;52.374;4.946;2024-03-02T03:54:59;7.50;99.90
25092;DHT22;13082;52.374;4.946;2024-03-02T03:57:25;7.50;99.90
25092;DHT22;13082;52.374;4.946;2024-03-02T03:59:51;7.50;99.90
25092;DHT22;13082;52.374;4.946;2024-03-02T04:02:17;7.50;99.90
25092;DHT22;13082;52.374;4.946;2024-03-02T04:04:42;7.50;99.90
25092;DHT22;13082;52.374;4.946;2024-03-02T04:07:09;7.50;99.90
25092;DHT22;13082;52.374;4.946;2024-03-02T04:09:34;7.50;99.90
25092;DHT22;13082;52.374;4.946;2024-03-02T04:12:00;7.50;99.90
25092;DHT22;13082;52.374;4.946;2024-03-02T04:14:25;7.50;99.90
25092;DHT22;13082;52.374;4.946;2024-03-02T04:16:51;7.60;99.90
25092;DHT22;13082;52.374;4.946;2024-03-02T04:19:17;7.50;99.90
25092;DHT22;13082;52.374;4.946;2024-03-02T04:21:42;7.50;99.90
25092;DHT22;13082;52.374;4.946;2024-03-02T04:24:08;7.50;99.90
25092;DHT22;13082;52.374;4.946;2024-03-02T04:26:33;7.50;99.90
25092;DHT22;13082;52.374;4.946;2024-03-02T04:28:59;7.50;99.90
25092;DHT22;13082;52.374;4.946;2024-03-02T04:31:24;7.50;99.90
25092;DHT22;13082;52.374;4.946;2024-03-02T04:33:50;7.50;99.90
25092;DHT22;13082;52.374;4.946;2024-03-02T04:36:16;7.50;99.90
25092;DHT22;13082;52.374;4.946;2024-03-02T04:38:41;7.50;99.90
25092;DHT22;13082;52.374;4.946;2024-03-02T04:41:07;7.50;99.90
25092;DHT22;13082;52.374;4.946;2024-03-02T04:43:33;7.60;99.90
25092;DHT22;13082;52.374;4.946;2024-03-02T04:45:59;7.60;99.90
25092;DHT22;13082;52.374;4.946;2024-03-02T04:48:25;7.50;99.90
25092;DHT22;13082;52.374;4.946;2024-03-02T04:50:51;7.50;99.90
25092;DHT22;13082;52.374;4.946;2024-03-02T04:53:17;7.50;99.90
25092;DHT22;13082;52.374;4.946;2024-03-02T04:55:42;7.50;99.90
25092;DHT22;13082;52.374;4.946;2024-03-02T04:58:08;7.50;99.90
25092;DHT22;13082;52.374;4.946;2024-03-02T05:00:34;7.50;99.90
25092;DHT22;13082;52.374;4.946;2024-03-02T05:03:00;7.60;99.90
25092;DHT22;13082;52.374;4.946;2024-03-02T05:05:26;7.50;99.90
25092;DHT22;13082;52.374;4.946;2024-03-02T05:07:52;7.50;99.90
25092;DHT22;13082;52.374;4.946;2024-03-02T05:10:18;7.50;99.90
25092;DHT22;13082;52.374;4.946;2024-03-02T05:12:43;7.50;99.90
25092;DHT22;13082;52.374;4.946;2024-03-02T05:15:13;7.50;99.90
25092;DHT22;13082;52.374;4.946;2024-03-02T05:17:40;7.50;99.90
25092;DHT22;13082;52.374;4.946;2024-03-02T05:20:07;7.50;99.90
25092;DHT22;13082;52.374;4.946;2024-03-02T05:22:36;7.40;99.90
25092;DHT22;13082;52.374;4.946;2024-03-02T05:25:05;7.40;99.90
25092;DHT22;13082;52.374;4.946;2024-03-02T05:27:31;7.40;99.90
25092;DHT22;13082;52.374;4.946;2024-03-02T05:30:00;7.40;99.90
25092;DHT22;13082;52.374;4.946;2024-03-02T05:32:26;7.40;99.90
25092;DHT22;13082;52.374;4.946;2024-03-02T05:34:51;7.30;99.90
25092;DHT22;13082;52.374;4.946;2024-03-02T05:37:17;7.30;99.90
25092;DHT22;13082;52.374;4.946;2024-03-02T05:39:43;7.30;99.90
25092;DHT22;13082;52.374;4.946;2024-03-02T05:42:09;7.20;99.90
25092;DHT22;13082;52.374;4.946;2024-03-02T05:44:38;7.20;99.90
25092;DHT22;13082;52.374;4.946;2024-03-02T05:47:03;7.30;99.90
25092;DHT22;13082;52.374;4.946;2024-03-02T05:49:29;7.30;99.90
25092;DHT22;13082;52.374;4.946;2024-03-02T05:51:55;7.30;99.90
25092;DHT22;13082;52.374;4.946;2024-03-02T05:54:21;7.20;99.90
25092;DHT22;13082;52.374;4.946;2024-03-02T05:56:47;7.20;99.90
25092;DHT22;13082;52.374;4.946;2024-03-02T05:59:12;7.20;99.90
25092;DHT22;13082;52.374;4.946;2024-03-02T06:01:48;7.20;99.90
25092;DHT22;13082;52.374;4.946;2024-03-02T06:04:16;7.10;99.90
25092;DHT22;13082;52.374;4.946;2024-03-02T06:06:41;7.20;99.90
25092;DHT22;13082;52.374;4.946;2024-03-02T06:09:07;7.20;99.90
25092;DHT22;13082;52.374;4.946;2024-03-02T06:11:36;7.20;99.90
25092;DHT22;13082;52.374;4.946;2024-03-02T06:14:06;7.20;99.90
25092;DHT22;13082;52.374;4.946;2024-03-02T06:16:32;7.20;99.90
25092;DHT22;13082;52.374;4.946;2024-03-02T06:18:58;7.20;99.90
25092;DHT22;13082;52.374;4.946;2024-03-02T06:21:24;7.10;99.90
25092;DHT22;13082;52.374;4.946;2024-03-02T06:23:50;7.10;99.90
25092;DHT22;13082;52.374;4.946;2024-03-02T06:26:16;7.10;99.90
25092;DHT22;13082;52.374;4.946;2024-03-02T06:28:41;7.10;99.90
25092;DHT22;13082;52.374;4.946;2024-03-02T06:31:08;7.10;99.90
25092;DHT22;13082;52.374;4.946;2024-03-02T06:33:34;7.10;99.90
25092;DHT22;13082;52.374;4.946;2024-03-02T06:36:00;7.10;99.90
25092;DHT22;13082;52.374;4.946;2024-03-02T06:38:25;7.10;99.90
25092;DHT22;13082;52.374;4.946;2024-03-02T06:40:51;7.20;99.90
25092;DHT22;13082;52.374;4.946;2024-03-02T06:43:17;7.20;99.90
25092;DHT22;13082;52.374;4.946;2024-03-02T06:45:42;7.20;99.90
25092;DHT22;13082;52.374;4.946;2024-03-02T06:48:08;7.20;99.90
25092;DHT22;13082;52.374;4.946;2024-03-02T06:50:33;7.30;99.90
25092;DHT22;13082;52.374;4.946;2024-03-02T06:52:59;7.30;99.90
25092;DHT22;13082;52.374;4.946;2024-03-02T06:55:25;7.40;99.90
25092;DHT22;13082;52.374;4.946;2024-03-02T06:57:51;7.40;99.90
25092;DHT22;13082;52.374;4.946;2024-03-02T07:00:17;7.50;99.90
25092;DHT22;13082;52.374;4.946;2024-03-02T07:02:44;7.40;99.90
25092;DHT22;13082;52.374;4.946;2024-03-02T07:05:10;7.40;99.90
25092;DHT22;13082;52.374;4.946;2024-03-02T07:07:36;7.50;99.90
25092;DHT22;13082;52.374;4.946;2024-03-02T07:10:03;7.50;99.90
25092;DHT22;13082;52.374;4.946;2024-03-02T07:12:29;7.50;99.90
25092;DHT22;13082;52.374;4.946;2024-03-02T07:14:56;7.60;99.90
25092;DHT22;13082;52.374;4.946;2024-03-02T07:17:27;7.60;99.90
25092;DHT22;13082;52.374;4.946;2024-03-02T07:19:53;7.70;99.90
25092;DHT22;13082;52.374;4.946;2024-03-02T07:22:19;7.70;99.90
25092;DHT22;13082;52.374;4.946;2024-03-02T07:24:45;7.80;99.90
25092;DHT22;13082;52.374;4.946;2024-03-02T07:27:13;7.80;99.90
25092;DHT22;13082;52.374;4.946;2024-03-02T07:29:40;7.80;99.90
25092;DHT22;13082;52.374;4.946;2024-03-02T07:32:06;7.80;99.90
25092;DHT22;13082;52.374;4.946;2024-03-02T07:34:32;7.80;99.90
25092;DHT22;13082;52.374;4.946;2024-03-02T07:36:58;7.80;99.90
25092;DHT22;13082;52.374;4.946;2024-03-02T07:39:24;7.80;99.90
25092;DHT22;13082;52.374;4.946;2024-03-02T07:41:49;7.80;99.90
25092;DHT22;13082;52.374;4.946;2024-03-02T07:44:15;7.80;99.90
25092;DHT22;13082;52.374;4.946;2024-03-02T07:46:42;7.80;99.90
25092;DHT22;13082;52.374;4.946;2024-03-02T07:49:08;7.80;99.90
25092;DHT22;13082;52.374;4.946;2024-03-02T07:51:34;7.80;99.90
25092;DHT22;13082;52.374;4.946;2024-03-02T07:54:00;7.80;99.90
25092;DHT22;13082;52.374;4.946;2024-03-02T07:56:26;7.80;99.90
25092;DHT22;13082;52.374;4.946;2024-03-02T07:58:52;7.80;99.90
25092;DHT22;13082;52.374;4.946;2024-03-02T08:01:17;7.90;99.90
25092;DHT22;13082;52.374;4.946;2024-03-02T08:03:43;7.90;99.90
25092;DHT22;13082;52.374;4.946;2024-03-02T08:06:17;8.00;99.90
25092;DHT22;13082;52.374;4.946;2024-03-02T08:08:43;8.10;99.90
25092;DHT22;13082;52.374;4.946;2024-03-02T08:11:08;8.20;99.90
25092;DHT22;13082;52.374;4.946;2024-03-02T08:13:34;8.30;99.90
25092;DHT22;13082;52.374;4.946;2024-03-02T08:16:00;8.40;99.90
25092;DHT22;13082;52.374;4.946;2024-03-02T08:18:28;8.50;99.90
25092;DHT22;13082;52.374;4.946;2024-03-02T08:20:54;8.50;99.90
25092;DHT22;13082;52.374;4.946;2024-03-02T08:23:20;8.50;99.90
25092;DHT22;13082;52.374;4.946;2024-03-02T08:25:45;8.60;99.90
25092;DHT22;13082;52.374;4.946;2024-03-02T08:28:11;8.60;99.90
25092;DHT22;13082;52.374;4.946;2024-03-02T08:30:36;8.70;99.90
25092;DHT22;13082;52.374;4.946;2024-03-02T08:33:02;8.80;99.90
25092;DHT22;13082;52.374;4.946;2024-03-02T08:35:28;8.90;99.90
25092;DHT22;13082;52.374;4.946;2024-03-02T08:37:53;8.90;99.90
25092;DHT22;13082;52.374;4.946;2024-03-02T08:40:19;9.00;99.90
25092;DHT22;13082;52.374;4.946;2024-03-02T08:42:45;8.90;99.90
25092;DHT22;13082;52.374;4.946;2024-03-02T08:45:11;9.00;99.90
25092;DHT22;13082;52.374;4.946;2024-03-02T08:47:37;8.90;99.90
25092;DHT22;13082;52.374;4.946;2024-03-02T08:50:02;8.90;99.90
25092;DHT22;13082;52.374;4.946;2024-03-02T08:52:29;8.90;99.90
25092;DHT22;13082;52.374;4.946;2024-03-02T08:54:54;9.00;99.90
25092;DHT22;13082;52.374;4.946;2024-03-02T08:57:20;9.00;99.90
25092;DHT22;13082;52.374;4.946;2024-03-02T08:59:46;9.00;99.90
25092;DHT22;13082;52.374;4.946;2024-03-02T09:02:11;9.00;99.90
25092;DHT22;13082;52.374;4.946;2024-03-02T09:04:37;9.10;99.90
25092;DHT22;13082;52.374;4.946;2024-03-02T09:07:03;9.20;99.90
25092;DHT22;13082;52.374;4.946;2024-03-02T09:09:28;9.30;99.90
25092;DHT22;13082;52.374;4.946;2024-03-02T09:11:54;9.40;99.90
25092;DHT22;13082;52.374;4.946;2024-03-02T09:14:21;9.40;99.90
25092;DHT22;13082;52.374;4.946;2024-03-02T09:16:46;9.50;99.90
25092;DHT22;13082;52.374;4.946;2024-03-02T09:19:12;9.60;99.90
25092;DHT22;13082;52.374;4.946;2024-03-02T09:21:37;9.60;99.90
25092;DHT22;13082;52.374;4.946;2024-03-02T09:24:03;9.70;99.90
25092;DHT22;13082;52.374;4.946;2024-03-02T09:26:29;9.60;99.90
25092;DHT22;13082;52.374;4.946;2024-03-02T09:28:55;9.60;99.90
25092;DHT22;13082;52.374;4.946;2024-03-02T09:31:20;9.50;99.90
25092;DHT22;13082;52.374;4.946;2024-03-02T09:33:46;9.60;99.90
25092;DHT22;13082;52.374;4.946;2024-03-02T09:36:19;9.60;99.90
25092;DHT22;13082;52.374;4.946;2024-03-02T09:38:45;9.60;99.90
25092;DHT22;13082;52.374;4.946;2024-03-02T09:41:11;9.70;99.90
25092;DHT22;13082;52.374;4.946;2024-03-02T09:43:37;9.80;99.90
25092;DHT22;13082;52.374;4.946;2024-03-02T09:46:03;9.70;99.90
25092;DHT22;13082;52.374;4.946;2024-03-02T09:48:29;9.70;99.90
25092;DHT22;13082;52.374;4.946;2024-03-02T09:50:54;9.70;99.90
25092;DHT22;13082;52.374;4.946;2024-03-02T09:53:20;9.70;99.90
25092;DHT22;13082;52.374;4.946;2024-03-02T09:55:47;9.80;99.90
25092;DHT22;13082;52.374;4.946;2024-03-02T09:58:13;9.90;99.90
25092;DHT22;13082;52.374;4.946;2024-03-02T10:00:38;10.00;99.90
25092;DHT22;13082;52.374;4.946;2024-03-02T10:03:04;10.10;99.90
25092;DHT22;13082;52.374;4.946;2024-03-02T10:05:30;10.10;99.90
25092;DHT22;13082;52.374;4.946;2024-03-02T10:08:03;10.10;99.90
25092;DHT22;13082;52.374;4.946;2024-03-02T10:10:40;10.10;99.90
25092;DHT22;13082;52.374;4.946;2024-03-02T10:13:07;10.20;99.90
25092;DHT22;13082;52.374;4.946;2024-03-02T10:15:33;10.30;99.90
25092;DHT22;13082;52.374;4.946;2024-03-02T10:17:59;10.20;99.90
25092;DHT22;13082;52.374;4.946;2024-03-02T10:20:26;10.30;99.90
25092;DHT22;13082;52.374;4.946;2024-03-02T10:22:54;10.40;99.90
25092;DHT22;13082;52.374;4.946;2024-03-02T10:25:33;10.40;99.90
25092;DHT22;13082;52.374;4.946;2024-03-02T10:28:00;10.40;99.90
25092;DHT22;13082;52.374;4.946;2024-03-02T10:30:29;10.50;99.90
25092;DHT22;13082;52.374;4.946;2024-03-02T10:32:55;10.70;99.90
25092;DHT22;13082;52.374;4.946;2024-03-02T10:35:23;10.80;99.90
25092;DHT22;13082;52.374;4.946;2024-03-02T10:37:49;10.70;99.90
25092;DHT22;13082;52.374;4.946;2024-03-02T10:40:16;10.80;99.90
25092;DHT22;13082;52.374;4.946;2024-03-02T10:42:42;10.90;99.90
25092;DHT22;13082;52.374;4.946;2024-03-02T10:45:09;11.00;99.90
25092;DHT22;13082;52.374;4.946;2024-03-02T10:47:38;11.00;99.90
25092;DHT22;13082;52.374;4.946;2024-03-02T10:50:07;11.00;99.90
25092;DHT22;13082;52.374;4.946;2024-03-02T10:52:42;11.00;99.90
25092;DHT22;13082;52.374;4.946;2024-03-02T10:55:09;11.10;99.90
25092;DHT22;13082;52.374;4.946;2024-03-02T10:57:45;11.20;99.90
25092;DHT22;13082;52.374;4.946;2024-03-02T11:00:13;11.30;99.90
25092;DHT22;13082;52.374;4.946;2024-03-02T11:02:50;11.30;99.90
25092;DHT22;13082;52.374;4.946;2024-03-02T11:05:23;11.40;99.90
25092;DHT22;13082;52.374;4.946;2024-03-02T11:07:53;11.50;99.90
25092;DHT22;13082;52.374;4.946;2024-03-02T11:10:22;11.60;99.90
25092;DHT22;13082;52.374;4.946;2024-03-02T11:12:55;11.60;99.90
25092;DHT22;13082;52.374;4.946;2024-03-02T11:15:25;11.80;99.90
25092;DHT22;13082;52.374;4.946;2024-03-02T11:17:52;11.80;99.90
25092;DHT22;13082;52.374;4.946;2024-03-02T11:20:18;11.90;99.90
25092;DHT22;13082;52.374;4.946;2024-03-02T11:22:45;11.80;99.90
25092;DHT22;13082;52.374;4.946;2024-03-02T11:25:25;11.80;99.90
25092;DHT22;13082;52.374;4.946;2024-03-02T11:32:58;11.80;99.90
25092;DHT22;13082;52.374;4.946;2024-03-02T11:35:25;12.00;99.90
25092;DHT22;13082;52.374;4.946;2024-03-02T11:37:51;12.10;99.90
25092;DHT22;13082;52.374;4.946;2024-03-02T11:40:24;12.10;99.90
25092;DHT22;13082;52.374;4.946;2024-03-02T11:42:50;11.90;99.90
25092;DHT22;13082;52.374;4.946;2024-03-02T11:45:17;11.90;99.90
25092;DHT22;13082;52.374;4.946;2024-03-02T11:47:57;11.90;99.90
25092;DHT22;13082;52.374;4.946;2024-03-02T11:50:52;11.90;99.90
25092;DHT22;13082;52.374;4.946;2024-03-02T11:53:19;11.90;99.90
25092;DHT22;13082;52.374;4.946;2024-03-02T11:55:45;11.90;99.90
25092;DHT22;13082;52.374;4.946;2024-03-02T11:58:12;12.00;99.90
25092;DHT22;13082;52.374;4.946;2024-03-02T12:00:39;12.00;99.90
25092;DHT22;13082;52.374;4.946;2024-03-02T12:03:07;12.10;99.90
25092;DHT22;13082;52.374;4.946;2024-03-02T12:05:33;12.20;99.90
25092;DHT22;13082;52.374;4.946;2024-03-02T12:08:04;12.30;99.90
25092;DHT22;13082;52.374;4.946;2024-03-02T12:10:30;12.30;99.90
25092;DHT22;13082;52.374;4.946;2024-03-02T12:15:27;12.40;99.90
25092;DHT22;13082;52.374;4.946;2024-03-02T12:17:58;12.50;99.90
25092;DHT22;13082;52.374;4.946;2024-03-02T12:20:25;12.60;99.90
25092;DHT22;13082;52.374;4.946;2024-03-02T12:22:54;12.60;99.90
25092;DHT22;13082;52.374;4.946;2024-03-02T12:25:21;12.60;99.90
25092;DHT22;13082;52.374;4.946;2024-03-02T12:27:55;12.60;99.90
25092;DHT22;13082;52.374;4.946;2024-03-02T12:30:21;12.60;99.90
25092;DHT22;13082;52.374;4.946;2024-03-02T12:32:47;12.60;99.90
25092;DHT22;13082;52.374;4.946;2024-03-02T12:35:13;12.70;99.90
25092;DHT22;13082;52.374;4.946;2024-03-02T12:37:52;12.80;99.90
25092;DHT22;13082;52.374;4.946;2024-03-02T12:40:19;12.80;99.90
25092;DHT22;13082;52.374;4.946;2024-03-02T12:42:46;12.70;99.90
25092;DHT22;13082;52.374;4.946;2024-03-02T12:45:12;12.80;99.90
25092;DHT22;13082;52.374;4.946;2024-03-02T12:47:40;12.90;99.90
25092;DHT22;13082;52.374;4.946;2024-03-02T12:50:07;12.90;99.90
25092;DHT22;13082;52.374;4.946;2024-03-02T12:52:32;12.80;99.90
25092;DHT22;13082;52.374;4.946;2024-03-02T12:55:04;12.80;99.90
25092;DHT22;13082;52.374;4.946;2024-03-02T12:57:31;12.80;99.90
25092;DHT22;13082;52.374;4.946;2024-03-02T13:00:05;12.80;99.90
25092;DHT22;13082;52.374;4.946;2024-03-02T13:02:40;12.90;99.90
25092;DHT22;13082;52.374;4.946;2024-03-02T13:05:07;12.90;99.90
25092;DHT22;13082;52.374;4.946;2024-03-02T13:07:37;12.90;99.90
25092;DHT22;13082;52.374;4.946;2024-03-02T13:10:03;12.60;99.90
25092;DHT22;13082;52.374;4.946;2024-03-02T13:12:30;12.60;99.90
25092;DHT22;13082;52.374;4.946;2024-03-02T13:14:58;12.70;99.90
25092;DHT22;13082;52.374;4.946;2024-03-02T13:17:24;12.80;99.90
25092;DHT22;13082;52.374;4.946;2024-03-02T13:19:57;12.90;99.90
25092;DHT22;13082;52.374;4.946;2024-03-02T13:22:23;13.00;99.90
25092;DHT22;13082;52.374;4.946;2024-03-02T13:24:49;13.00;99.90
25092;DHT22;13082;52.374;4.946;2024-03-02T13:27:15;12.90;99.90
25092;DHT22;13082;52.374;4.946;2024-03-02T13:29:42;13.00;99.90
25092;DHT22;13082;52.374;4.946;2024-03-02T13:32:07;13.00;99.90
25092;DHT22;13082;52.374;4.946;2024-03-02T13:34:35;13.00;99.90
25092;DHT22;13082;52.374;4.946;2024-03-02T13:37:01;12.90;99.90
25092;DHT22;13082;52.374;4.946;2024-03-02T13:39:27;12.90;99.90
25092;DHT22;13082;52.374;4.946;2024-03-02T13:41:56;12.90;99.90
25092;DHT22;13082;52.374;4.946;2024-03-02T13:44:28;13.00;99.90
25092;DHT22;13082;52.374;4.946;2024-03-02T13:46:54;13.10;99.90
25092;DHT22;13082;52.374;4.946;2024-03-02T13:49:20;13.10;99.90
25092;DHT22;13082;52.374;4.946;2024-03-02T13:51:45;13.10;99.90
25092;DHT22;13082;52.374;4.946;2024-03-02T13:54:11;13.00;99.90
25092;DHT22;13082;52.374;4.946;2024-03-02T13:56:37;13.10;99.90
25092;DHT22;13082;52.374;4.946;2024-03-02T13:59:04;13.10;99.90
25092;DHT22;13082;52.374;4.946;2024-03-02T14:01:31;13.00;99.90
25092;DHT22;13082;52.374;4.946;2024-03-02T14:03:58;13.00;99.90
25092;DHT22;13082;52.374;4.946;2024-03-02T14:06:23;13.00;99.90
25092;DHT22;13082;52.374;4.946;2024-03-02T14:08:51;13.00;99.90
25092;DHT22;13082;52.374;4.946;2024-03-02T14:11:17;13.10;99.90
25092;DHT22;13082;52.374;4.946;2024-03-02T14:13:43;13.00;99.90
25092;DHT22;13082;52.374;4.946;2024-03-02T14:16:10;13.10;99.90
25092;DHT22;13082;52.374;4.946;2024-03-02T14:18:36;13.00;99.90
25092;DHT22;13082;52.374;4.946;2024-03-02T14:21:01;13.00;99.90
25092;DHT22;13082;52.374;4.946;2024-03-02T14:23:29;12.90;99.90
25092;DHT22;13082;52.374;4.946;2024-03-02T14:25:55;12.90;99.90
25092;DHT22;13082;52.374;4.946;2024-03-02T14:28:21;12.90;99.90
25092;DHT22;13082;52.374;4.946;2024-03-02T14:30:46;12.90;99.90
25092;DHT22;13082;52.374;4.946;2024-03-02T14:33:12;12.90;99.90
25092;DHT22;13082;52.374;4.946;2024-03-02T14:35:39;13.00;99.90
25092;DHT22;13082;52.374;4.946;2024-03-02T14:38:04;13.10;99.90
25092;DHT22;13082;52.374;4.946;2024-03-02T14:40:30;13.10;99.90
25092;DHT22;13082;52.374;4.946;2024-03-02T14:42:56;13.20;99.90
25092;DHT22;13082;52.374;4.946;2024-03-02T14:45:21;13.20;99.90
25092;DHT22;13082;52.374;4.946;2024-03-02T14:47:47;13.20;99.90
25092;DHT22;13082;52.374;4.946;2024-03-02T14:50:13;13.20;99.90
25092;DHT22;13082;52.374;4.946;2024-03-02T14:52:41;13.10;99.90
25092;DHT22;13082;52.374;4.946;2024-03-02T14:55:07;13.00;99.90
25092;DHT22;13082;52.374;4.946;2024-03-02T14:57:33;13.00;99.90
25092;DHT22;13082;52.374;4.946;2024-03-02T14:59:59;12.90;99.90
25092;DHT22;13082;52.374;4.946;2024-03-02T15:02:24;12.90;99.90
25092;DHT22;13082;52.374;4.946;2024-03-02T15:04:50;12.80;99.90
25092;DHT22;13082;52.374;4.946;2024-03-02T15:07:16;12.70;99.90
25092;DHT22;13082;52.374;4.946;2024-03-02T15:09:41;12.60;99.90
25092;DHT22;13082;52.374;4.946;2024-03-02T15:12:07;12.60;99.90
25092;DHT22;13082;52.374;4.946;2024-03-02T15:14:37;12.60;99.90
25092;DHT22;13082;52.374;4.946;2024-03-02T15:17:12;12.50;99.90
25092;DHT22;13082;52.374;4.946;2024-03-02T15:19:40;12.50;99.90
25092;DHT22;13082;52.374;4.946;2024-03-02T15:22:06;12.50;99.90
25092;DHT22;13082;52.374;4.946;2024-03-02T15:24:32;12.50;99.90
25092;DHT22;13082;52.374;4.946;2024-03-02T15:26:57;12.50;99.90
25092;DHT22;13082;52.374;4.946;2024-03-02T15:29:23;12.50;99.90
25092;DHT22;13082;52.374;4.946;2024-03-02T15:31:54;12.50;99.90
25092;DHT22;13082;52.374;4.946;2024-03-02T15:34:19;12.60;99.90
25092;DHT22;13082;52.374;4.946;2024-03-02T15:36:45;12.60;99.90
25092;DHT22;13082;52.374;4.946;2024-03-02T15:39:10;12.60;99.90
25092;DHT22;13082;52.374;4.946;2024-03-02T15:41:36;12.60;99.90
25092;DHT22;13082;52.374;4.946;2024-03-02T15:44:02;12.60;99.90
25092;DHT22;13082;52.374;4.946;2024-03-02T15:46:28;12.50;99.90